Atkinson, New Hampshire
Current Conditions -  °F | °C
As of 12:54 PM on Thursday 30 Oct 2014 (Local Time) from KLWM Reporting Station
Scattered Clouds Scattered Clouds  
Wind Chill: 13°   Ceiling: Unl
Heat Index: 13°   Visibility: 10mi
Dew Point:   Wind: 12mph
Humidity: 55%   Direction: 310°NW
Pressure: 29.93"   Gusts: NA
Location:  42.84°N, 71.15°W
Report Text: KLWM 301654Z 31010KT 10SM SCT075 13/04 A2993 RMK AO2 SLP135 T01280039
Loading
Personal Weather Stations






























Interactive Weather Map
Tropical Storm Tracking
New forecast layout! Learn more

10-Day Weather Forecast

Advertisements
Track Severe Weather on mobile